createdAt,value
2023-05-20T00:00:00.610Z,87.5
2023-05-20T00:10:00.581Z,89.7
2023-05-20T00:20:00.576Z,85.2
2023-05-20T00:30:00.570Z,83.9
2023-05-20T00:40:00.588Z,84.1
2023-05-20T00:50:00.581Z,85.1
2023-05-20T01:00:00.579Z,87.1
2023-05-20T01:10:00.570Z,89.7
2023-05-20T01:20:00.580Z,91.4
2023-05-20T01:30:00.609Z,93.5
2023-05-20T01:40:00.616Z,94.1
2023-05-20T01:50:00.589Z,95.1
2023-05-20T02:00:00.608Z,95.2
2023-05-20T02:10:00.586Z,96.0
2023-05-20T02:20:00.640Z,93.1
2023-05-20T02:30:00.580Z,88.5
2023-05-20T02:40:00.653Z,85.6
2023-05-20T02:50:00.612Z,85.0
2023-05-20T03:00:00.661Z,88.2
2023-05-20T03:10:00.564Z,88.1
2023-05-20T03:20:00.566Z,85.0
2023-05-20T03:30:00.553Z,82.2
2023-05-20T03:40:00.596Z,81.8
2023-05-20T03:50:00.553Z,84.1
2023-05-20T04:00:00.619Z,86.1
2023-05-20T04:10:01.098Z,88.6
2023-05-20T04:20:00.555Z,87.5
2023-05-20T04:30:00.499Z,82.0
2023-05-20T04:50:00.282Z,80.3
2023-05-20T05:00:00.283Z,80.1
2023-05-20T05:10:00.263Z,81.0
2023-05-20T05:20:00.317Z,79.8
2023-05-20T05:30:00.372Z,69.6
2023-05-20T05:40:00.267Z,61.9
2023-05-20T05:50:00.502Z,57.8
2023-05-20T06:00:00.269Z,53.8
2023-05-20T06:10:00.270Z,52.2
2023-05-20T06:20:00.254Z,51.1
2023-05-20T06:30:00.317Z,50.6
2023-05-20T06:40:00.276Z,49.5
2023-05-20T06:50:00.238Z,48.6
2023-05-20T07:00:00.268Z,48.1
2023-05-20T07:10:00.264Z,44.3
2023-05-20T07:20:00.286Z,47.8
2023-05-20T07:30:00.260Z,42.8
2023-05-20T07:40:00.296Z,43.1
2023-05-20T07:50:00.273Z,44.6
2023-05-20T08:00:00.251Z,46.8
2023-05-20T08:10:00.247Z,42.7
2023-05-20T08:20:00.261Z,41.5
2023-05-20T08:30:00.986Z,43.5
2023-05-20T08:40:00.259Z,43.4
2023-05-20T08:50:00.262Z,40.6
2023-05-20T09:00:00.274Z,40.2
2023-05-20T09:10:00.318Z,40.6
2023-05-20T09:20:00.267Z,37.7
2023-05-20T09:30:00.276Z,38.5
2023-05-20T09:40:00.286Z,39.2
2023-05-20T09:50:00.291Z,36.5
2023-05-20T10:00:00.258Z,35.1
2023-05-20T10:10:00.263Z,35.9
2023-05-20T10:20:00.292Z,33.4
2023-05-20T10:30:00.389Z,36.4
2023-05-20T10:40:00.257Z,36.0
2023-05-20T10:50:00.285Z,32.9
2023-05-20T11:00:00.264Z,32.3
2023-05-20T11:10:00.265Z,28.8
2023-05-20T11:20:00.289Z,29.5
2023-05-20T11:30:00.264Z,30.1
2023-05-20T11:40:00.257Z,29.8
2023-05-20T11:50:00.281Z,29.6
2023-05-20T12:00:00.280Z,30.1
2023-05-20T12:10:00.282Z,33.2
2023-05-20T12:20:00.280Z,30.9
2023-05-20T12:30:00.323Z,30.4
2023-05-20T12:40:00.283Z,31.5
2023-05-20T12:50:00.296Z,31.5
2023-05-20T13:00:00.260Z,33.9
2023-05-20T13:10:00.255Z,32.9
2023-05-20T13:20:00.280Z,34.9
2023-05-20T13:30:00.295Z,33.2
2023-05-20T13:40:00.311Z,33.2
2023-05-20T13:50:02.812Z,34.1
2023-05-20T14:00:00.312Z,33.7
2023-05-20T14:10:00.290Z,32.4
2023-05-20T14:20:00.300Z,35.1
2023-05-20T14:30:00.363Z,36.2
2023-05-20T14:40:00.277Z,33.8
2023-05-20T14:50:00.252Z,34.6
2023-05-20T15:00:00.296Z,37.3
2023-05-20T15:10:00.536Z,35.0
2023-05-20T15:20:00.281Z,35.4
2023-05-20T15:30:00.272Z,35.6
2023-05-20T15:40:00.275Z,36.2
2023-05-20T15:50:00.288Z,36.1
2023-05-20T16:00:00.371Z,36.8
2023-05-20T16:10:00.388Z,37.6
2023-05-20T16:20:00.486Z,39.8
2023-05-20T16:30:00.437Z,40.8
2023-05-20T16:40:00.273Z,40.8
2023-05-20T16:50:00.296Z,40.1
2023-05-20T17:00:00.268Z,40.8
2023-05-20T17:10:00.272Z,42.5
2023-05-20T17:20:00.252Z,43.2
2023-05-20T17:30:00.358Z,45.9
2023-05-20T17:40:00.261Z,50.2
2023-05-20T17:50:00.236Z,52.5
2023-05-20T18:00:00.274Z,54.5
2023-05-20T18:10:00.322Z,57.2
2023-05-20T18:20:00.283Z,58.1
2023-05-20T18:30:00.249Z,59.9
2023-05-20T18:40:00.348Z,59.2
2023-05-20T18:50:00.274Z,58.5
2023-05-20T19:00:00.268Z,58.8
2023-05-20T19:10:00.257Z,58.4
2023-05-20T19:20:00.290Z,59.7
2023-05-20T19:30:00.251Z,60.9
2023-05-20T19:40:00.271Z,61.2
2023-05-20T19:50:00.264Z,61.1
2023-05-20T20:00:00.248Z,61.5
2023-05-20T20:10:00.249Z,61.3
2023-05-20T20:20:00.243Z,60.2
2023-05-20T20:30:00.319Z,63.4
2023-05-20T20:40:00.264Z,62.6
2023-05-20T20:50:00.275Z,64.1
2023-05-20T21:00:00.321Z,64.5
2023-05-20T21:10:00.303Z,65.4
2023-05-20T21:20:00.258Z,65.6
2023-05-20T21:30:00.270Z,64.0
2023-05-20T21:40:00.261Z,62.1
2023-05-20T21:50:00.259Z,61.0
2023-05-20T22:00:00.332Z,61.0
2023-05-20T22:10:00.294Z,60.4
2023-05-20T22:20:00.262Z,61.0
2023-05-20T22:30:00.256Z,61.7
2023-05-20T22:40:00.247Z,60.7
2023-05-20T22:50:00.266Z,59.5
2023-05-20T23:00:00.338Z,60.1
2023-05-20T23:10:00.254Z,61.1
2023-05-20T23:20:00.259Z,60.4
2023-05-20T23:30:00.276Z,61.1
2023-05-20T23:40:00.249Z,60.9
2023-05-20T23:50:00.267Z,61.2
